AUA974 LOWW-BIKF
Flight info
| Callsign | AUA974 |
|---|---|
| Flight time | 4h 12m |
| Altitude | 36000 |
| Route | LANUX DCT VLM DCT HDO M748 ESIKA DCT BUMIL DCT DOSUR DCT MITSI DCT ORVIK/N0449F380 DCT BESGA DCT RATSU/M079F380 DCT ALDAN DCT ASRUN ASRUN3K |
| Aircraft | A20N/M-SDE2E3FGHIRWXY/LB1 |
Departure
| Time | 2026-04-25 05:39 |
|---|---|
| Airport | Vienna International Airport (LOWW) |
Arrival
| Time | 2026-04-25 09:51 |
|---|---|
| Airport | Keflavik International Airport (BIKF) |
| Time | Latitude | Longitude | Altitude | Speed | Heading |
|---|---|---|---|---|---|
| 2026-04-25 05:21 | 48.11809 | 16.57042 | 602 ft | 0 kts | 205° |
| 2026-04-25 05:30 | 48.11809 | 16.57043 | 602 ft | 0 kts | 205° |
| 2026-04-25 05:31 | 48.11818 | 16.57049 | 602 ft | 2 kts | 205° |
| 2026-04-25 05:31 | 48.11832 | 16.57058 | 601 ft | 2 kts | 205° |
| 2026-04-25 05:31 | 48.11840 | 16.57065 | 601 ft | 1 kts | 206° |
| 2026-04-25 05:32 | 48.11855 | 16.57071 | 600 ft | 2 kts | 178° |
| 2026-04-25 05:32 | 48.11870 | 16.57066 | 599 ft | 2 kts | 155° |
| 2026-04-25 05:32 | 48.11882 | 16.57054 | 598 ft | 2 kts | 131° |
| 2026-04-25 05:32 | 48.11887 | 16.57043 | 598 ft | 1 kts | 117° |
| 2026-04-25 05:33 | 48.11890 | 16.57034 | 598 ft | 0 kts | 115° |
| 2026-04-25 05:35 | 48.11886 | 16.57048 | 598 ft | 4 kts | 116° |
| 2026-04-25 05:35 | 48.11858 | 16.57137 | 598 ft | 13 kts | 104° |
| 2026-04-25 05:35 | 48.11825 | 16.57300 | 597 ft | 18 kts | 116° |
| 2026-04-25 05:35 | 48.11797 | 16.57464 | 594 ft | 16 kts | 136° |
| 2026-04-25 05:36 | 48.11684 | 16.57525 | 595 ft | 18 kts | 165° |
| 2026-04-25 05:36 | 48.11554 | 16.57581 | 596 ft | 20 kts | 165° |
| 2026-04-25 05:36 | 48.11409 | 16.57643 | 596 ft | 21 kts | 165° |
| 2026-04-25 05:36 | 48.11272 | 16.57684 | 596 ft | 18 kts | 189° |
| 2026-04-25 05:37 | 48.11158 | 16.57609 | 597 ft | 13 kts | 207° |
| 2026-04-25 05:37 | 48.11077 | 16.57643 | 598 ft | 13 kts | 156° |
| 2026-04-25 05:37 | 48.10986 | 16.57609 | 599 ft | 14 kts | 206° |
| 2026-04-25 05:37 | 48.10920 | 16.57537 | 601 ft | 10 kts | 276° |
| 2026-04-25 05:38 | 48.10927 | 16.57494 | 601 ft | 0 kts | 297° |
| 2026-04-25 05:38 | 48.10927 | 16.57493 | 601 ft | 0 kts | 297° |
| 2026-04-25 05:38 | 48.10993 | 16.57299 | 602 ft | 53 kts | 296° |
| 2026-04-25 05:38 | 48.11254 | 16.56493 | 596 ft | 117 kts | 296° |
| 2026-04-25 05:39 | 48.11697 | 16.55129 | 602 ft | 167 kts | 297° |
| 2026-04-25 05:39 | 48.12215 | 16.53547 | 1100 ft | 172 kts | 294° |
| 2026-04-25 05:39 | 48.12358 | 16.51806 | 1713 ft | 176 kts | 259° |
| 2026-04-25 05:39 | 48.12048 | 16.50059 | 2378 ft | 177 kts | 257° |
| 2026-04-25 05:40 | 48.11734 | 16.48212 | 2828 ft | 190 kts | 263° |
| 2026-04-25 05:40 | 48.11692 | 16.46164 | 3219 ft | 206 kts | 277° |
| 2026-04-25 05:40 | 48.11892 | 16.43945 | 3555 ft | 227 kts | 280° |
| 2026-04-25 05:40 | 48.12158 | 16.41521 | 4000 ft | 246 kts | 281° |
| 2026-04-25 05:41 | 48.12443 | 16.38947 | 4612 ft | 257 kts | 280° |
| 2026-04-25 05:41 | 48.12728 | 16.36310 | 5429 ft | 259 kts | 280° |
| 2026-04-25 05:41 | 48.13009 | 16.33668 | 6226 ft | 262 kts | 279° |
| 2026-04-25 05:41 | 48.13294 | 16.30953 | 7013 ft | 265 kts | 279° |
| 2026-04-25 05:42 | 48.13577 | 16.28244 | 7777 ft | 268 kts | 279° |
| 2026-04-25 05:42 | 48.13863 | 16.25506 | 8524 ft | 270 kts | 279° |
| 2026-04-25 05:42 | 48.14211 | 16.22748 | 9245 ft | 273 kts | 289° |
| 2026-04-25 05:42 | 48.15177 | 16.20332 | 9920 ft | 277 kts | 315° |
| 2026-04-25 05:43 | 48.16762 | 16.18685 | 10586 ft | 282 kts | 330° |
| 2026-04-25 05:43 | 48.18532 | 16.17300 | 10935 ft | 298 kts | 332° |
| 2026-04-25 05:43 | 48.20442 | 16.15841 | 11237 ft | 315 kts | 332° |
| 2026-04-25 05:43 | 48.22432 | 16.14313 | 11525 ft | 331 kts | 331° |
| 2026-04-25 05:44 | 48.24512 | 16.12703 | 11800 ft | 347 kts | 331° |
| 2026-04-25 05:44 | 48.26690 | 16.11009 | 12064 ft | 361 kts | 331° |
| 2026-04-25 05:44 | 48.28962 | 16.09235 | 12315 ft | 376 kts | 331° |
| 2026-04-25 05:44 | 48.31316 | 16.07392 | 12579 ft | 388 kts | 331° |
| 2026-04-25 05:45 | 48.33744 | 16.05487 | 13085 ft | 393 kts | 331° |
| 2026-04-25 05:45 | 48.36163 | 16.03590 | 13719 ft | 394 kts | 330° |
| 2026-04-25 05:45 | 48.38467 | 16.01777 | 14311 ft | 395 kts | 330° |
| 2026-04-25 05:46 | 48.40807 | 15.99923 | 14944 ft | 394 kts | 331° |
| 2026-04-25 05:46 | 48.43240 | 15.97991 | 15550 ft | 395 kts | 331° |
| 2026-04-25 05:47 | 48.45557 | 15.96154 | 16028 ft | 398 kts | 331° |
| 2026-04-25 05:47 | 48.48000 | 15.94216 | 16519 ft | 400 kts | 331° |
| 2026-04-25 05:47 | 48.50466 | 15.92260 | 17008 ft | 403 kts | 331° |
| 2026-04-25 05:47 | 48.52939 | 15.90297 | 17480 ft | 406 kts | 331° |
| 2026-04-25 05:48 | 48.55415 | 15.88329 | 17936 ft | 408 kts | 331° |
| 2026-04-25 05:48 | 48.57936 | 15.86325 | 18384 ft | 410 kts | 331° |
| 2026-04-25 05:48 | 48.60454 | 15.84321 | 18817 ft | 413 kts | 331° |
| 2026-04-25 05:48 | 48.62991 | 15.82299 | 19237 ft | 415 kts | 331° |
| 2026-04-25 05:49 | 48.65547 | 15.80260 | 19649 ft | 418 kts | 331° |
| 2026-04-25 05:49 | 48.68130 | 15.78196 | 20057 ft | 420 kts | 331° |
| 2026-04-25 05:49 | 48.70697 | 15.76144 | 20455 ft | 422 kts | 331° |
| 2026-04-25 05:49 | 48.73287 | 15.74071 | 20851 ft | 424 kts | 331° |
| 2026-04-25 05:50 | 48.75878 | 15.71994 | 21233 ft | 427 kts | 331° |
| 2026-04-25 05:50 | 48.78510 | 15.69881 | 21607 ft | 429 kts | 331° |
| 2026-04-25 05:50 | 48.81147 | 15.67763 | 21976 ft | 431 kts | 331° |
| 2026-04-25 05:50 | 48.83813 | 15.65618 | 22340 ft | 433 kts | 331° |
| 2026-04-25 05:51 | 48.86454 | 15.63490 | 22687 ft | 435 kts | 331° |
| 2026-04-25 05:51 | 48.89151 | 15.61424 | 23018 ft | 438 kts | 333° |
| 2026-04-25 05:51 | 48.91916 | 15.59517 | 23339 ft | 440 kts | 335° |
| 2026-04-25 05:51 | 48.94747 | 15.57636 | 23652 ft | 442 kts | 335° |
| 2026-04-25 05:52 | 48.97528 | 15.55800 | 23952 ft | 444 kts | 335° |
| 2026-04-25 05:52 | 49.00366 | 15.53926 | 24355 ft | 443 kts | 335° |
| 2026-04-25 05:52 | 49.03155 | 15.52080 | 24789 ft | 441 kts | 335° |
| 2026-04-25 05:52 | 49.05962 | 15.50218 | 25205 ft | 439 kts | 335° |
| 2026-04-25 05:53 | 49.08755 | 15.48360 | 25598 ft | 438 kts | 335° |
| 2026-04-25 05:53 | 49.11546 | 15.46501 | 25988 ft | 438 kts | 335° |
| 2026-04-25 05:53 | 49.14309 | 15.44657 | 26379 ft | 437 kts | 335° |
| 2026-04-25 05:53 | 49.17069 | 15.42812 | 26764 ft | 436 kts | 335° |
| 2026-04-25 05:54 | 49.19833 | 15.40963 | 27146 ft | 435 kts | 335° |
| 2026-04-25 05:54 | 49.22591 | 15.39115 | 27519 ft | 434 kts | 334° |
| 2026-04-25 05:54 | 49.28098 | 15.35417 | 28225 ft | 432 kts | 334° |
| 2026-04-25 05:55 | 49.30561 | 15.33760 | 28530 ft | 431 kts | 334° |
| 2026-04-25 05:55 | 49.31614 | 15.33052 | 28660 ft | 431 kts | 334° |
| 2026-04-25 05:55 | 49.34344 | 15.31212 | 28997 ft | 429 kts | 334° |
| 2026-04-25 05:55 | 49.37068 | 15.29373 | 29317 ft | 429 kts | 334° |
| 2026-04-25 05:56 | 49.39785 | 15.27537 | 29620 ft | 428 kts | 334° |
| 2026-04-25 05:56 | 49.42493 | 15.25706 | 29907 ft | 427 kts | 334° |
| 2026-04-25 05:56 | 49.45211 | 15.23865 | 30186 ft | 426 kts | 334° |
| 2026-04-25 05:56 | 49.47913 | 15.22034 | 30455 ft | 426 kts | 334° |
| 2026-04-25 05:57 | 49.50600 | 15.20210 | 30712 ft | 425 kts | 334° |
| 2026-04-25 05:57 | 49.53304 | 15.18374 | 30965 ft | 424 kts | 333° |
| 2026-04-25 05:57 | 49.56000 | 15.16540 | 31203 ft | 424 kts | 333° |
| 2026-04-25 05:57 | 49.58661 | 15.14728 | 31434 ft | 423 kts | 333° |
| 2026-04-25 05:58 | 49.61351 | 15.12895 | 31666 ft | 423 kts | 333° |
| 2026-04-25 05:58 | 49.64022 | 15.11071 | 31895 ft | 422 kts | 333° |
| 2026-04-25 05:58 | 49.66694 | 15.09244 | 32120 ft | 422 kts | 333° |
| 2026-04-25 05:58 | 49.69366 | 15.07431 | 32336 ft | 421 kts | 334° |
| 2026-04-25 05:59 | 49.72115 | 15.05753 | 32548 ft | 422 kts | 336° |
| 2026-04-25 05:59 | 49.74839 | 15.04215 | 32746 ft | 422 kts | 337° |
| 2026-04-25 05:59 | 49.77589 | 15.02688 | 32947 ft | 421 kts | 337° |
| 2026-04-25 05:59 | 49.80342 | 15.01160 | 33147 ft | 421 kts | 337° |
| 2026-04-25 06:00 | 49.83085 | 14.99636 | 33347 ft | 420 kts | 337° |
| 2026-04-25 06:00 | 49.85830 | 14.98107 | 33535 ft | 420 kts | 337° |
| 2026-04-25 06:00 | 49.88533 | 14.96599 | 33717 ft | 419 kts | 337° |
| 2026-04-25 06:00 | 49.91263 | 14.95073 | 33890 ft | 419 kts | 337° |
| 2026-04-25 06:01 | 49.93986 | 14.93547 | 34059 ft | 418 kts | 337° |
| 2026-04-25 06:01 | 49.96722 | 14.92012 | 34226 ft | 418 kts | 337° |
| 2026-04-25 06:01 | 49.99459 | 14.90475 | 34375 ft | 418 kts | 337° |
| 2026-04-25 06:01 | 50.02172 | 14.88950 | 34499 ft | 419 kts | 337° |
| 2026-04-25 06:02 | 50.04913 | 14.87406 | 34615 ft | 419 kts | 337° |
| 2026-04-25 06:02 | 50.07647 | 14.85864 | 34725 ft | 420 kts | 337° |
| 2026-04-25 06:02 | 50.10385 | 14.84317 | 34841 ft | 420 kts | 337° |
| 2026-04-25 06:02 | 50.13119 | 14.82771 | 34960 ft | 420 kts | 337° |
| 2026-04-25 06:03 | 50.15832 | 14.81234 | 35065 ft | 421 kts | 337° |
| 2026-04-25 06:03 | 50.18578 | 14.79679 | 35173 ft | 421 kts | 337° |
| 2026-04-25 06:03 | 50.21337 | 14.78115 | 35279 ft | 421 kts | 337° |
| 2026-04-25 06:03 | 50.24079 | 14.76558 | 35380 ft | 422 kts | 337° |
| 2026-04-25 06:04 | 50.29582 | 14.73428 | 35561 ft | 422 kts | 337° |
| 2026-04-25 06:04 | 50.35064 | 14.70302 | 35733 ft | 423 kts | 337° |
| 2026-04-25 06:05 | 50.40597 | 14.67139 | 35886 ft | 424 kts | 337° |
| 2026-04-25 06:05 | 50.46125 | 14.63970 | 36031 ft | 424 kts | 337° |
| 2026-04-25 06:06 | 50.51646 | 14.60800 | 36085 ft | 425 kts | 337° |
| 2026-04-25 06:06 | 50.57158 | 14.57625 | 36087 ft | 425 kts | 337° |
| 2026-04-25 06:07 | 50.62706 | 14.54417 | 36088 ft | 425 kts | 337° |
| 2026-04-25 06:07 | 50.68218 | 14.51232 | 36089 ft | 425 kts | 337° |
| 2026-04-25 06:08 | 50.73739 | 14.48030 | 36087 ft | 425 kts | 337° |
| 2026-04-25 06:08 | 50.79269 | 14.44813 | 36088 ft | 425 kts | 337° |
| 2026-04-25 06:09 | 50.84784 | 14.41554 | 36087 ft | 424 kts | 335° |
| 2026-04-25 06:09 | 50.90118 | 14.37633 | 36087 ft | 422 kts | 329° |
| 2026-04-25 06:10 | 50.95113 | 14.32872 | 36088 ft | 420 kts | 323° |
| 2026-04-25 06:10 | 50.99726 | 14.27343 | 36088 ft | 418 kts | 318° |
| 2026-04-25 06:11 | 51.04126 | 14.21349 | 36089 ft | 418 kts | 317° |
| 2026-04-25 06:11 | 51.08504 | 14.15315 | 36088 ft | 418 kts | 317° |
| 2026-04-25 06:12 | 51.12882 | 14.09259 | 36088 ft | 418 kts | 317° |
| 2026-04-25 06:12 | 51.17269 | 14.03173 | 36088 ft | 418 kts | 317° |
| 2026-04-25 06:13 | 51.21629 | 13.97106 | 36088 ft | 418 kts | 317° |
| 2026-04-25 06:14 | 51.28184 | 13.87955 | 36088 ft | 418 kts | 317° |
| 2026-04-25 06:14 | 51.32530 | 13.81868 | 36089 ft | 418 kts | 317° |
| 2026-04-25 06:15 | 51.36882 | 13.75756 | 36089 ft | 418 kts | 317° |
| 2026-04-25 06:15 | 51.41237 | 13.69625 | 36088 ft | 418 kts | 317° |
| 2026-04-25 06:16 | 51.45610 | 13.63449 | 36088 ft | 418 kts | 317° |
| 2026-04-25 06:16 | 51.49959 | 13.57299 | 36086 ft | 418 kts | 317° |
| 2026-04-25 06:17 | 51.54302 | 13.51144 | 36089 ft | 418 kts | 317° |
| 2026-04-25 06:17 | 51.58632 | 13.44992 | 36087 ft | 418 kts | 317° |
| 2026-04-25 06:18 | 51.62994 | 13.38779 | 36087 ft | 418 kts | 317° |
| 2026-04-25 06:18 | 51.67319 | 13.32598 | 36087 ft | 418 kts | 316° |
| 2026-04-25 06:19 | 51.71643 | 13.26393 | 36089 ft | 418 kts | 316° |
| 2026-04-25 06:19 | 51.75990 | 13.20135 | 36088 ft | 418 kts | 316° |
| 2026-04-25 06:20 | 51.80288 | 13.13932 | 36088 ft | 418 kts | 317° |
| 2026-04-25 06:20 | 51.84630 | 13.07661 | 36089 ft | 418 kts | 316° |
| 2026-04-25 06:21 | 51.88927 | 13.01432 | 36088 ft | 418 kts | 316° |
| 2026-04-25 06:21 | 51.93252 | 12.95148 | 36088 ft | 418 kts | 316° |
| 2026-04-25 06:22 | 51.97570 | 12.88855 | 36086 ft | 418 kts | 316° |
| 2026-04-25 06:22 | 52.01878 | 12.82561 | 36089 ft | 418 kts | 316° |
| 2026-04-25 06:23 | 52.06167 | 12.76278 | 36087 ft | 418 kts | 316° |
| 2026-04-25 06:23 | 52.10494 | 12.69918 | 36088 ft | 418 kts | 316° |
| 2026-04-25 06:24 | 52.14880 | 12.63745 | 36090 ft | 419 kts | 319° |
| 2026-04-25 06:24 | 52.19343 | 12.57715 | 36086 ft | 419 kts | 319° |
| 2026-04-25 06:25 | 52.23811 | 12.51668 | 36089 ft | 419 kts | 319° |
| 2026-04-25 06:25 | 52.28260 | 12.45623 | 36088 ft | 419 kts | 319° |
| 2026-04-25 06:26 | 52.32732 | 12.39530 | 36088 ft | 419 kts | 319° |
| 2026-04-25 06:26 | 52.37180 | 12.33449 | 36088 ft | 419 kts | 318° |
| 2026-04-25 06:27 | 52.41627 | 12.27351 | 36089 ft | 419 kts | 318° |
| 2026-04-25 06:27 | 52.46066 | 12.21247 | 36089 ft | 419 kts | 318° |
| 2026-04-25 06:28 | 52.50493 | 12.15146 | 36088 ft | 419 kts | 318° |
| 2026-04-25 06:28 | 52.54954 | 12.08983 | 36088 ft | 419 kts | 318° |
| 2026-04-25 06:29 | 52.59375 | 12.02855 | 36089 ft | 419 kts | 318° |
| 2026-04-25 06:29 | 52.63813 | 11.96688 | 36087 ft | 419 kts | 318° |
| 2026-04-25 06:30 | 52.68250 | 11.90508 | 36089 ft | 418 kts | 318° |
| 2026-04-25 06:30 | 52.72674 | 11.84325 | 36088 ft | 419 kts | 318° |
| 2026-04-25 06:31 | 52.77101 | 11.78123 | 36088 ft | 419 kts | 318° |
| 2026-04-25 06:31 | 52.81527 | 11.71905 | 36089 ft | 419 kts | 318° |
| 2026-04-25 06:32 | 52.85916 | 11.65725 | 36086 ft | 418 kts | 318° |
| 2026-04-25 06:32 | 52.90348 | 11.59465 | 36088 ft | 419 kts | 318° |
| 2026-04-25 06:33 | 52.94766 | 11.53208 | 36086 ft | 419 kts | 318° |
| 2026-04-25 06:33 | 52.99173 | 11.46947 | 36088 ft | 419 kts | 318° |
| 2026-04-25 06:34 | 53.03580 | 11.40668 | 36087 ft | 419 kts | 318° |
| 2026-04-25 06:34 | 53.07986 | 11.34375 | 36088 ft | 419 kts | 317° |
| 2026-04-25 06:35 | 53.12442 | 11.28248 | 36089 ft | 419 kts | 321° |
| 2026-04-25 06:35 | 53.17205 | 11.22638 | 36089 ft | 420 kts | 323° |
| 2026-04-25 06:36 | 53.22017 | 11.17131 | 36088 ft | 420 kts | 323° |
| 2026-04-25 06:36 | 53.26798 | 11.11639 | 36087 ft | 420 kts | 323° |
| 2026-04-25 06:37 | 53.31589 | 11.06114 | 36089 ft | 420 kts | 323° |
| 2026-04-25 06:37 | 53.36383 | 11.00569 | 36087 ft | 420 kts | 323° |
| 2026-04-25 06:38 | 53.41154 | 10.95031 | 36089 ft | 420 kts | 323° |
| 2026-04-25 06:38 | 53.45947 | 10.89457 | 36088 ft | 420 kts | 323° |
| 2026-04-25 06:39 | 53.50720 | 10.83890 | 36087 ft | 420 kts | 323° |
| 2026-04-25 06:39 | 53.55495 | 10.78304 | 36088 ft | 420 kts | 323° |
| 2026-04-25 06:40 | 53.60291 | 10.72678 | 36089 ft | 420 kts | 323° |
| 2026-04-25 06:40 | 53.65049 | 10.67079 | 36089 ft | 420 kts | 323° |
| 2026-04-25 06:41 | 53.69834 | 10.61433 | 36088 ft | 420 kts | 323° |
| 2026-04-25 06:41 | 53.74577 | 10.55821 | 36089 ft | 420 kts | 323° |
| 2026-04-25 06:42 | 53.79349 | 10.50156 | 36088 ft | 420 kts | 323° |
| 2026-04-25 06:42 | 53.84120 | 10.44480 | 36087 ft | 420 kts | 323° |
| 2026-04-25 06:43 | 53.88884 | 10.38798 | 36086 ft | 420 kts | 323° |
| 2026-04-25 06:43 | 53.93640 | 10.33103 | 36090 ft | 420 kts | 322° |
| 2026-04-25 06:44 | 53.98370 | 10.27427 | 36088 ft | 420 kts | 322° |
| 2026-04-25 06:44 | 54.03128 | 10.21701 | 36088 ft | 420 kts | 322° |
| 2026-04-25 06:45 | 54.07892 | 10.15953 | 36088 ft | 420 kts | 322° |
| 2026-04-25 06:45 | 54.12620 | 10.10230 | 36089 ft | 420 kts | 322° |
| 2026-04-25 06:46 | 54.17383 | 10.04449 | 36088 ft | 420 kts | 322° |
| 2026-04-25 06:46 | 54.22096 | 9.98711 | 36088 ft | 420 kts | 322° |
| 2026-04-25 06:47 | 54.26854 | 9.92899 | 36089 ft | 420 kts | 322° |
| 2026-04-25 06:47 | 54.31573 | 9.87119 | 36088 ft | 420 kts | 322° |
| 2026-04-25 06:48 | 54.36293 | 9.81322 | 36088 ft | 420 kts | 322° |
| 2026-04-25 06:48 | 54.41023 | 9.75497 | 36088 ft | 420 kts | 322° |
| 2026-04-25 06:49 | 54.45772 | 9.69631 | 36088 ft | 420 kts | 322° |
| 2026-04-25 06:49 | 54.50482 | 9.63800 | 36089 ft | 420 kts | 322° |
| 2026-04-25 06:50 | 54.55187 | 9.57954 | 36088 ft | 420 kts | 322° |
| 2026-04-25 06:50 | 54.59920 | 9.52058 | 36087 ft | 420 kts | 322° |
| 2026-04-25 06:51 | 54.64642 | 9.46158 | 36089 ft | 420 kts | 322° |
| 2026-04-25 06:51 | 54.69336 | 9.40278 | 36085 ft | 420 kts | 322° |
| 2026-04-25 06:52 | 54.74056 | 9.34344 | 36090 ft | 420 kts | 321° |
| 2026-04-25 06:52 | 54.78746 | 9.28431 | 36087 ft | 420 kts | 322° |
| 2026-04-25 06:53 | 54.83456 | 9.22479 | 36088 ft | 420 kts | 321° |
| 2026-04-25 06:53 | 54.88193 | 9.16575 | 36087 ft | 420 kts | 323° |
| 2026-04-25 06:54 | 54.92990 | 9.10856 | 36088 ft | 420 kts | 323° |
| 2026-04-25 06:54 | 54.97794 | 9.05111 | 36090 ft | 420 kts | 323° |
| 2026-04-25 06:55 | 55.02598 | 8.99339 | 36088 ft | 420 kts | 323° |
| 2026-04-25 06:55 | 55.07378 | 8.93570 | 36088 ft | 420 kts | 323° |
| 2026-04-25 06:56 | 55.12149 | 8.87791 | 36088 ft | 420 kts | 323° |
| 2026-04-25 06:56 | 55.16928 | 8.81986 | 36087 ft | 420 kts | 323° |
| 2026-04-25 06:57 | 55.21740 | 8.76124 | 36089 ft | 420 kts | 323° |
| 2026-04-25 06:57 | 55.26498 | 8.70309 | 36087 ft | 420 kts | 323° |
| 2026-04-25 06:58 | 55.31292 | 8.64434 | 36089 ft | 420 kts | 323° |
| 2026-04-25 06:58 | 55.36038 | 8.58600 | 36089 ft | 420 kts | 323° |
| 2026-04-25 06:59 | 55.40809 | 8.52721 | 36089 ft | 420 kts | 323° |
| 2026-04-25 06:59 | 55.45569 | 8.46832 | 36088 ft | 420 kts | 323° |
| 2026-04-25 07:00 | 55.50348 | 8.40903 | 36087 ft | 420 kts | 323° |
| 2026-04-25 07:00 | 55.55090 | 8.34999 | 36087 ft | 420 kts | 323° |
| 2026-04-25 07:01 | 55.59861 | 8.29040 | 36089 ft | 420 kts | 322° |
| 2026-04-25 07:01 | 55.64597 | 8.23111 | 36088 ft | 420 kts | 322° |
| 2026-04-25 07:02 | 55.69345 | 8.17148 | 36089 ft | 420 kts | 322° |
| 2026-04-25 07:02 | 55.74114 | 8.11141 | 36089 ft | 420 kts | 322° |
| 2026-04-25 07:03 | 55.78856 | 8.05150 | 36087 ft | 420 kts | 322° |
| 2026-04-25 07:03 | 55.83604 | 7.99132 | 36087 ft | 420 kts | 322° |
| 2026-04-25 07:04 | 55.88331 | 7.93128 | 36087 ft | 420 kts | 322° |
| 2026-04-25 07:04 | 55.93062 | 7.87099 | 36089 ft | 420 kts | 322° |
| 2026-04-25 07:05 | 55.97790 | 7.81054 | 36087 ft | 420 kts | 322° |
| 2026-04-25 07:05 | 56.02519 | 7.74989 | 36089 ft | 420 kts | 322° |
| 2026-04-25 07:06 | 56.07258 | 7.68898 | 36088 ft | 420 kts | 322° |
| 2026-04-25 07:06 | 56.11992 | 7.62789 | 36089 ft | 420 kts | 322° |
| 2026-04-25 07:07 | 56.16709 | 7.56678 | 36089 ft | 420 kts | 322° |
| 2026-04-25 07:07 | 56.21431 | 7.50540 | 36088 ft | 420 kts | 322° |
| 2026-04-25 07:08 | 56.26140 | 7.44403 | 36088 ft | 420 kts | 322° |
| 2026-04-25 07:08 | 56.30853 | 7.38241 | 36088 ft | 420 kts | 322° |
| 2026-04-25 07:09 | 56.35541 | 7.32094 | 36089 ft | 420 kts | 321° |
| 2026-04-25 07:09 | 56.40252 | 7.25897 | 36088 ft | 420 kts | 321° |
| 2026-04-25 07:10 | 56.44963 | 7.19682 | 36089 ft | 420 kts | 322° |
| 2026-04-25 07:10 | 56.49657 | 7.13474 | 36087 ft | 420 kts | 321° |
| 2026-04-25 07:11 | 56.54361 | 7.07228 | 36087 ft | 420 kts | 321° |
| 2026-04-25 07:11 | 56.59034 | 7.01005 | 36087 ft | 420 kts | 321° |
| 2026-04-25 07:12 | 56.63739 | 6.94717 | 36090 ft | 420 kts | 321° |
| 2026-04-25 07:12 | 56.70767 | 6.85290 | 36087 ft | 420 kts | 321° |
| 2026-04-25 07:13 | 56.75422 | 6.79023 | 36089 ft | 420 kts | 321° |
| 2026-04-25 07:13 | 56.80111 | 6.72687 | 36088 ft | 420 kts | 321° |
| 2026-04-25 07:14 | 56.84787 | 6.66351 | 36087 ft | 420 kts | 321° |
| 2026-04-25 07:14 | 56.89455 | 6.59999 | 36087 ft | 420 kts | 321° |
| 2026-04-25 07:15 | 56.94119 | 6.53636 | 36086 ft | 420 kts | 321° |
| 2026-04-25 07:15 | 56.98703 | 6.47124 | 36087 ft | 419 kts | 318° |
| 2026-04-25 07:16 | 57.02926 | 6.39857 | 36086 ft | 418 kts | 313° |
| 2026-04-25 07:16 | 57.06937 | 6.32083 | 36089 ft | 418 kts | 311° |
| 2026-04-25 07:17 | 57.10892 | 6.24331 | 36088 ft | 418 kts | 311° |
| 2026-04-25 07:17 | 57.14843 | 6.16571 | 36088 ft | 418 kts | 311° |
| 2026-04-25 07:18 | 57.18808 | 6.08762 | 36088 ft | 418 kts | 311° |
| 2026-04-25 07:18 | 57.22765 | 6.00942 | 36088 ft | 418 kts | 312° |
| 2026-04-25 07:19 | 57.26698 | 5.93144 | 36088 ft | 418 kts | 311° |
| 2026-04-25 07:19 | 57.30653 | 5.85275 | 36088 ft | 418 kts | 311° |
| 2026-04-25 07:20 | 57.34574 | 5.77449 | 36089 ft | 418 kts | 311° |
| 2026-04-25 07:20 | 57.38497 | 5.69591 | 36088 ft | 418 kts | 311° |
| 2026-04-25 07:21 | 57.42428 | 5.61691 | 36088 ft | 418 kts | 311° |
| 2026-04-25 07:21 | 57.46361 | 5.53760 | 36089 ft | 418 kts | 311° |
| 2026-04-25 07:22 | 57.50277 | 5.45837 | 36088 ft | 418 kts | 311° |
| 2026-04-25 07:22 | 57.54188 | 5.37901 | 36089 ft | 418 kts | 311° |
| 2026-04-25 07:23 | 57.58091 | 5.29951 | 36089 ft | 418 kts | 311° |
| 2026-04-25 07:23 | 57.62003 | 5.21956 | 36088 ft | 418 kts | 311° |
| 2026-04-25 07:24 | 57.65885 | 5.13991 | 36088 ft | 418 kts | 311° |
| 2026-04-25 07:24 | 57.69788 | 5.05958 | 36089 ft | 418 kts | 311° |
| 2026-04-25 07:25 | 57.73688 | 4.97904 | 36088 ft | 418 kts | 311° |
| 2026-04-25 07:25 | 57.77548 | 4.89904 | 36089 ft | 418 kts | 311° |
| 2026-04-25 07:26 | 57.81440 | 4.81804 | 36088 ft | 418 kts | 311° |
| 2026-04-25 07:26 | 57.85290 | 4.73763 | 36086 ft | 417 kts | 311° |
| 2026-04-25 07:27 | 57.89169 | 4.65638 | 36087 ft | 418 kts | 311° |
| 2026-04-25 07:27 | 57.93016 | 4.57551 | 36086 ft | 418 kts | 311° |
| 2026-04-25 07:28 | 57.96874 | 4.49410 | 36087 ft | 418 kts | 311° |
| 2026-04-25 07:28 | 58.00737 | 4.41240 | 36087 ft | 418 kts | 311° |
| 2026-04-25 07:29 | 58.04584 | 4.33067 | 36089 ft | 418 kts | 310° |
| 2026-04-25 07:29 | 58.08413 | 4.24910 | 36089 ft | 417 kts | 310° |
| 2026-04-25 07:30 | 58.12257 | 4.16688 | 36088 ft | 418 kts | 310° |
| 2026-04-25 07:30 | 58.16092 | 4.08457 | 36086 ft | 417 kts | 310° |
| 2026-04-25 07:31 | 58.19917 | 4.00218 | 36088 ft | 417 kts | 310° |
| 2026-04-25 07:31 | 58.23712 | 3.92011 | 36088 ft | 417 kts | 310° |
| 2026-04-25 07:32 | 58.27526 | 3.83735 | 36088 ft | 417 kts | 310° |
| 2026-04-25 07:32 | 58.31350 | 3.75409 | 36088 ft | 417 kts | 310° |
| 2026-04-25 07:33 | 58.35151 | 3.67105 | 36089 ft | 417 kts | 310° |
| 2026-04-25 07:33 | 58.38942 | 3.58793 | 36088 ft | 417 kts | 310° |
| 2026-04-25 07:34 | 58.42736 | 3.50445 | 36087 ft | 418 kts | 310° |
| 2026-04-25 07:34 | 58.46510 | 3.42110 | 36087 ft | 418 kts | 310° |
| 2026-04-25 07:35 | 58.50297 | 3.33718 | 36089 ft | 417 kts | 309° |
| 2026-04-25 07:35 | 58.54071 | 3.25326 | 36088 ft | 417 kts | 309° |
| 2026-04-25 07:36 | 58.57841 | 3.16910 | 36088 ft | 417 kts | 309° |
| 2026-04-25 07:36 | 58.61603 | 3.08480 | 36087 ft | 418 kts | 309° |
| 2026-04-25 07:37 | 58.65360 | 3.00031 | 36089 ft | 417 kts | 309° |
| 2026-04-25 07:37 | 58.69125 | 2.91532 | 36089 ft | 417 kts | 309° |
| 2026-04-25 07:38 | 58.72850 | 2.83092 | 36088 ft | 417 kts | 309° |
| 2026-04-25 07:38 | 58.76598 | 2.74572 | 36088 ft | 417 kts | 309° |
| 2026-04-25 07:39 | 58.80347 | 2.66013 | 36088 ft | 418 kts | 309° |
| 2026-04-25 07:39 | 58.84068 | 2.57492 | 36087 ft | 417 kts | 309° |
| 2026-04-25 07:40 | 58.87783 | 2.48951 | 36089 ft | 418 kts | 309° |
| 2026-04-25 07:40 | 58.91501 | 2.40374 | 36088 ft | 417 kts | 309° |
| 2026-04-25 07:41 | 58.95224 | 2.31751 | 36088 ft | 417 kts | 308° |
| 2026-04-25 07:41 | 58.98917 | 2.23167 | 36088 ft | 417 kts | 308° |
| 2026-04-25 07:42 | 59.02619 | 2.14531 | 36088 ft | 417 kts | 308° |
| 2026-04-25 07:42 | 59.06324 | 2.05858 | 36087 ft | 417 kts | 308° |
| 2026-04-25 07:43 | 59.10009 | 1.97200 | 36088 ft | 417 kts | 308° |
| 2026-04-25 07:43 | 59.13695 | 1.88512 | 36086 ft | 418 kts | 308° |
| 2026-04-25 07:44 | 59.16753 | 1.81279 | 36088 ft | 417 kts | 308° |
| 2026-04-25 07:44 | 59.21046 | 1.71078 | 36089 ft | 417 kts | 308° |
| 2026-04-25 07:45 | 59.24723 | 1.62301 | 36087 ft | 417 kts | 308° |
| 2026-04-25 07:45 | 59.28372 | 1.53565 | 36088 ft | 418 kts | 308° |
| 2026-04-25 07:46 | 59.32038 | 1.44758 | 36088 ft | 418 kts | 308° |
| 2026-04-25 07:46 | 59.35667 | 1.36004 | 36089 ft | 417 kts | 308° |
| 2026-04-25 07:47 | 59.39322 | 1.27147 | 36088 ft | 417 kts | 308° |
| 2026-04-25 07:47 | 59.42952 | 1.18321 | 36089 ft | 417 kts | 308° |
| 2026-04-25 07:48 | 59.46577 | 1.09479 | 36087 ft | 417 kts | 308° |
| 2026-04-25 07:48 | 59.50201 | 1.00602 | 36089 ft | 417 kts | 308° |
| 2026-04-25 07:49 | 59.53816 | 0.91719 | 36089 ft | 417 kts | 308° |
| 2026-04-25 07:49 | 59.57424 | 0.82810 | 36088 ft | 417 kts | 307° |
| 2026-04-25 07:50 | 59.60836 | 0.73510 | 36087 ft | 417 kts | 302° |
| 2026-04-25 07:50 | 59.63717 | 0.63641 | 36089 ft | 417 kts | 297° |
| 2026-04-25 07:51 | 59.66074 | 0.53213 | 36087 ft | 417 kts | 291° |
| 2026-04-25 07:51 | 59.67986 | 0.42405 | 36087 ft | 417 kts | 290° |
| 2026-04-25 07:52 | 59.69817 | 0.31581 | 36089 ft | 417 kts | 289° |
| 2026-04-25 07:52 | 59.71578 | 0.21118 | 36089 ft | 417 kts | 289° |
| 2026-04-25 07:53 | 59.73393 | 0.10279 | 36088 ft | 417 kts | 289° |
| 2026-04-25 07:53 | 59.75204 | -0.00602 | 36088 ft | 417 kts | 289° |
| 2026-04-25 07:54 | 59.76990 | -0.11393 | 36088 ft | 417 kts | 289° |
| 2026-04-25 07:54 | 59.78785 | -0.22313 | 36088 ft | 417 kts | 289° |
| 2026-04-25 07:55 | 59.80567 | -0.33219 | 36087 ft | 417 kts | 289° |
| 2026-04-25 07:55 | 59.82345 | -0.44162 | 36087 ft | 417 kts | 289° |
| 2026-04-25 07:56 | 59.84110 | -0.55093 | 36086 ft | 417 kts | 289° |
| 2026-04-25 07:56 | 59.85875 | -0.66097 | 36087 ft | 417 kts | 288° |
| 2026-04-25 07:57 | 59.87614 | -0.77007 | 36086 ft | 417 kts | 288° |
| 2026-04-25 07:57 | 59.89357 | -0.88000 | 36086 ft | 417 kts | 288° |
| 2026-04-25 07:58 | 59.91089 | -0.98993 | 36088 ft | 417 kts | 288° |
| 2026-04-25 07:58 | 59.92811 | -1.09997 | 36087 ft | 417 kts | 288° |
| 2026-04-25 07:59 | 59.94530 | -1.21054 | 36088 ft | 417 kts | 288° |
| 2026-04-25 07:59 | 59.96230 | -1.32052 | 36086 ft | 417 kts | 288° |
| 2026-04-25 08:00 | 59.97921 | -1.43069 | 36087 ft | 417 kts | 288° |
| 2026-04-25 08:00 | 59.99615 | -1.54180 | 36087 ft | 417 kts | 288° |
| 2026-04-25 08:01 | 60.01280 | -1.65172 | 36087 ft | 417 kts | 287° |
| 2026-04-25 08:01 | 60.02948 | -1.76256 | 36088 ft | 417 kts | 287° |
| 2026-04-25 08:02 | 60.04610 | -1.87367 | 36088 ft | 417 kts | 287° |
| 2026-04-25 08:02 | 60.06253 | -1.98428 | 36090 ft | 417 kts | 287° |
| 2026-04-25 08:03 | 60.07896 | -2.09574 | 36088 ft | 417 kts | 287° |
| 2026-04-25 08:03 | 60.09517 | -2.20640 | 36087 ft | 417 kts | 287° |
| 2026-04-25 08:04 | 60.11144 | -2.31811 | 36088 ft | 417 kts | 287° |
| 2026-04-25 08:04 | 60.12758 | -2.42975 | 36087 ft | 417 kts | 287° |
| 2026-04-25 08:05 | 60.14358 | -2.54110 | 36089 ft | 417 kts | 287° |
| 2026-04-25 08:05 | 60.15951 | -2.65278 | 36087 ft | 417 kts | 286° |
| 2026-04-25 08:06 | 60.17529 | -2.76424 | 36089 ft | 417 kts | 287° |
| 2026-04-25 08:06 | 60.19102 | -2.87599 | 36088 ft | 417 kts | 287° |
| 2026-04-25 08:07 | 60.20668 | -2.98799 | 36089 ft | 417 kts | 286° |
| 2026-04-25 08:07 | 60.22223 | -3.10007 | 36090 ft | 417 kts | 287° |
| 2026-04-25 08:08 | 60.23766 | -3.21220 | 36089 ft | 417 kts | 287° |
| 2026-04-25 08:08 | 60.25307 | -3.32481 | 36087 ft | 417 kts | 286° |
| 2026-04-25 08:09 | 60.26827 | -3.43680 | 36087 ft | 417 kts | 287° |
| 2026-04-25 08:09 | 60.28345 | -3.54930 | 36089 ft | 417 kts | 287° |
| 2026-04-25 08:10 | 60.29855 | -3.66211 | 36089 ft | 417 kts | 285° |
| 2026-04-25 08:10 | 60.31345 | -3.77421 | 36088 ft | 417 kts | 285° |
| 2026-04-25 08:11 | 60.32843 | -3.88772 | 36089 ft | 417 kts | 285° |
| 2026-04-25 08:11 | 60.34313 | -3.99995 | 36089 ft | 417 kts | 285° |
| 2026-04-25 08:12 | 60.35789 | -4.11356 | 36088 ft | 417 kts | 285° |
| 2026-04-25 08:12 | 60.37006 | -4.20781 | 36088 ft | 417 kts | 285° |
| 2026-04-25 08:13 | 60.38693 | -4.33941 | 36088 ft | 417 kts | 285° |
| 2026-04-25 08:14 | 60.40853 | -4.50965 | 36089 ft | 417 kts | 285° |
| 2026-04-25 08:14 | 60.42282 | -4.62335 | 36087 ft | 417 kts | 285° |
| 2026-04-25 08:15 | 60.43689 | -4.73621 | 36089 ft | 417 kts | 284° |
| 2026-04-25 08:15 | 60.45099 | -4.85018 | 36088 ft | 417 kts | 285° |
| 2026-04-25 08:16 | 60.46498 | -4.96408 | 36088 ft | 417 kts | 284° |
| 2026-04-25 08:16 | 60.47885 | -5.07784 | 36088 ft | 417 kts | 285° |
| 2026-04-25 08:17 | 60.49260 | -5.19144 | 36088 ft | 417 kts | 285° |
| 2026-04-25 08:17 | 60.50628 | -5.30551 | 36087 ft | 417 kts | 285° |
| 2026-04-25 08:18 | 60.51988 | -5.41988 | 36089 ft | 417 kts | 285° |
| 2026-04-25 08:18 | 60.53336 | -5.53416 | 36089 ft | 417 kts | 285° |
| 2026-04-25 08:19 | 60.54679 | -5.64882 | 36087 ft | 417 kts | 285° |
| 2026-04-25 08:19 | 60.56006 | -5.76319 | 36088 ft | 417 kts | 284° |
| 2026-04-25 08:20 | 60.57321 | -5.87740 | 36089 ft | 417 kts | 284° |
| 2026-04-25 08:20 | 60.58633 | -5.99208 | 36087 ft | 417 kts | 284° |
| 2026-04-25 08:21 | 60.59931 | -6.10662 | 36088 ft | 417 kts | 284° |
| 2026-04-25 08:21 | 60.61224 | -6.22175 | 36088 ft | 417 kts | 284° |
| 2026-04-25 08:22 | 60.62499 | -6.33622 | 36088 ft | 417 kts | 284° |
| 2026-04-25 08:22 | 60.63773 | -6.45153 | 36088 ft | 417 kts | 284° |
| 2026-04-25 08:23 | 60.65032 | -6.56645 | 36089 ft | 417 kts | 284° |
| 2026-04-25 08:23 | 60.66277 | -6.68138 | 36090 ft | 418 kts | 283° |
| 2026-04-25 08:24 | 60.67522 | -6.79701 | 36089 ft | 417 kts | 283° |
| 2026-04-25 08:24 | 60.68753 | -6.91242 | 36089 ft | 417 kts | 283° |
| 2026-04-25 08:25 | 60.69975 | -7.02801 | 36088 ft | 417 kts | 283° |
| 2026-04-25 08:25 | 60.71184 | -7.14343 | 36088 ft | 417 kts | 283° |
| 2026-04-25 08:26 | 60.72382 | -7.25878 | 36089 ft | 417 kts | 283° |
| 2026-04-25 08:26 | 60.73577 | -7.37496 | 36088 ft | 417 kts | 283° |
| 2026-04-25 08:27 | 60.74751 | -7.49024 | 36089 ft | 417 kts | 283° |
| 2026-04-25 08:27 | 60.75921 | -7.60604 | 36088 ft | 417 kts | 283° |
| 2026-04-25 08:28 | 60.77086 | -7.72250 | 36089 ft | 417 kts | 282° |
| 2026-04-25 08:28 | 60.78233 | -7.83831 | 36088 ft | 417 kts | 282° |
| 2026-04-25 08:29 | 60.79395 | -7.95411 | 36087 ft | 417 kts | 283° |
| 2026-04-25 08:29 | 60.80654 | -8.06959 | 36088 ft | 417 kts | 283° |
| 2026-04-25 08:30 | 60.81914 | -8.18594 | 36088 ft | 417 kts | 283° |
| 2026-04-25 08:30 | 60.83151 | -8.30171 | 36087 ft | 417 kts | 283° |
| 2026-04-25 08:31 | 60.84381 | -8.41785 | 36088 ft | 417 kts | 283° |
| 2026-04-25 08:31 | 60.85589 | -8.53321 | 36087 ft | 417 kts | 283° |
| 2026-04-25 08:32 | 60.86792 | -8.64926 | 36088 ft | 417 kts | 283° |
| 2026-04-25 08:32 | 60.87990 | -8.76563 | 36088 ft | 417 kts | 282° |
| 2026-04-25 08:33 | 60.89180 | -8.88240 | 36087 ft | 417 kts | 282° |
| 2026-04-25 08:33 | 60.90354 | -8.99866 | 36088 ft | 417 kts | 282° |
| 2026-04-25 08:34 | 60.91517 | -9.11502 | 36087 ft | 417 kts | 282° |
| 2026-04-25 08:34 | 60.92667 | -9.23119 | 36088 ft | 417 kts | 283° |
| 2026-04-25 08:35 | 60.93811 | -9.34786 | 36087 ft | 417 kts | 282° |
| 2026-04-25 08:35 | 60.94949 | -9.46493 | 36087 ft | 417 kts | 283° |
| 2026-04-25 08:36 | 60.96068 | -9.58130 | 36087 ft | 417 kts | 283° |
| 2026-04-25 08:36 | 60.97181 | -9.69824 | 36089 ft | 417 kts | 282° |
| 2026-04-25 08:37 | 60.98284 | -9.81510 | 36088 ft | 417 kts | 282° |
| 2026-04-25 08:37 | 60.99690 | -9.93119 | 36089 ft | 417 kts | 287° |
| 2026-04-25 08:38 | 61.01624 | -10.04287 | 36087 ft | 417 kts | 292° |
| 2026-04-25 08:38 | 61.04100 | -10.15066 | 36088 ft | 417 kts | 298° |
| 2026-04-25 08:39 | 61.06912 | -10.25531 | 36089 ft | 417 kts | 298° |
| 2026-04-25 08:39 | 61.09737 | -10.35953 | 36086 ft | 417 kts | 298° |
| 2026-04-25 08:40 | 61.12562 | -10.46420 | 36089 ft | 417 kts | 299° |
| 2026-04-25 08:40 | 61.15357 | -10.56826 | 36089 ft | 417 kts | 298° |
| 2026-04-25 08:41 | 61.18158 | -10.67303 | 36089 ft | 417 kts | 298° |
| 2026-04-25 08:41 | 61.20954 | -10.77811 | 36088 ft | 417 kts | 298° |
| 2026-04-25 08:42 | 61.23738 | -10.88331 | 36088 ft | 417 kts | 298° |
| 2026-04-25 08:42 | 61.26506 | -10.98850 | 36089 ft | 417 kts | 298° |
| 2026-04-25 08:43 | 61.29285 | -11.09455 | 36089 ft | 417 kts | 298° |
| 2026-04-25 08:43 | 61.32043 | -11.20027 | 36088 ft | 417 kts | 298° |
| 2026-04-25 08:44 | 61.34794 | -11.30619 | 36088 ft | 417 kts | 298° |
| 2026-04-25 08:44 | 61.37536 | -11.41230 | 36088 ft | 417 kts | 298° |
| 2026-04-25 08:45 | 61.40265 | -11.51838 | 36088 ft | 417 kts | 298° |
| 2026-04-25 08:45 | 61.42983 | -11.62456 | 36088 ft | 417 kts | 298° |
| 2026-04-25 08:46 | 61.45708 | -11.73151 | 36088 ft | 417 kts | 297° |
| 2026-04-25 08:46 | 61.48407 | -11.83793 | 36087 ft | 417 kts | 297° |
| 2026-04-25 08:47 | 61.51110 | -11.94499 | 36088 ft | 417 kts | 297° |
| 2026-04-25 08:47 | 61.53804 | -12.05224 | 36089 ft | 417 kts | 297° |
| 2026-04-25 08:48 | 61.56495 | -12.15989 | 36089 ft | 417 kts | 297° |
| 2026-04-25 08:48 | 61.59163 | -12.26718 | 36089 ft | 417 kts | 297° |
| 2026-04-25 08:49 | 61.61840 | -12.37533 | 36088 ft | 417 kts | 297° |
| 2026-04-25 08:49 | 61.64042 | -12.46470 | 36088 ft | 417 kts | 297° |
| 2026-04-25 08:50 | 61.67131 | -12.59070 | 36088 ft | 417 kts | 297° |
| 2026-04-25 08:50 | 61.69776 | -12.69928 | 36087 ft | 417 kts | 296° |
| 2026-04-25 08:51 | 61.72416 | -12.80809 | 36090 ft | 417 kts | 296° |
| 2026-04-25 08:51 | 61.75040 | -12.91681 | 36087 ft | 417 kts | 296° |
| 2026-04-25 08:52 | 61.77651 | -13.02545 | 36089 ft | 417 kts | 296° |
| 2026-04-25 08:52 | 61.80260 | -13.13461 | 36090 ft | 417 kts | 296° |
| 2026-04-25 08:53 | 61.82852 | -13.24364 | 36088 ft | 417 kts | 296° |
| 2026-04-25 08:53 | 61.85440 | -13.35304 | 36087 ft | 417 kts | 296° |
| 2026-04-25 08:54 | 61.88012 | -13.46227 | 36088 ft | 417 kts | 296° |
| 2026-04-25 08:54 | 61.90589 | -13.57230 | 36088 ft | 417 kts | 296° |
| 2026-04-25 08:55 | 61.93152 | -13.68225 | 36088 ft | 417 kts | 295° |
| 2026-04-25 08:55 | 61.95710 | -13.79243 | 36088 ft | 417 kts | 295° |
| 2026-04-25 08:56 | 61.98254 | -13.90262 | 36088 ft | 417 kts | 295° |
| 2026-04-25 08:56 | 62.00802 | -14.01354 | 36089 ft | 417 kts | 295° |
| 2026-04-25 08:57 | 62.03330 | -14.12428 | 36088 ft | 417 kts | 295° |
| 2026-04-25 08:57 | 62.05841 | -14.23480 | 36088 ft | 417 kts | 295° |
| 2026-04-25 08:58 | 62.08349 | -14.34578 | 36088 ft | 417 kts | 295° |
| 2026-04-25 08:58 | 62.10848 | -14.45690 | 36088 ft | 417 kts | 295° |
| 2026-04-25 08:59 | 62.13347 | -14.56879 | 36090 ft | 417 kts | 295° |
| 2026-04-25 08:59 | 62.15818 | -14.67997 | 36092 ft | 417 kts | 294° |
| 2026-04-25 09:00 | 62.18304 | -14.79229 | 36087 ft | 417 kts | 294° |
| 2026-04-25 09:00 | 62.20760 | -14.90390 | 36088 ft | 417 kts | 295° |
| 2026-04-25 09:01 | 62.23225 | -15.01649 | 36087 ft | 417 kts | 294° |
| 2026-04-25 09:01 | 62.25660 | -15.12835 | 36087 ft | 417 kts | 294° |
| 2026-04-25 09:02 | 62.28092 | -15.24069 | 36088 ft | 417 kts | 294° |
| 2026-04-25 09:02 | 62.30530 | -15.35384 | 36088 ft | 417 kts | 294° |
| 2026-04-25 09:03 | 62.32941 | -15.46636 | 36088 ft | 417 kts | 294° |
| 2026-04-25 09:03 | 62.35364 | -15.57997 | 36087 ft | 417 kts | 294° |
| 2026-04-25 09:04 | 62.37762 | -15.69305 | 36088 ft | 417 kts | 294° |
| 2026-04-25 09:04 | 62.40152 | -15.80637 | 36088 ft | 417 kts | 294° |
| 2026-04-25 09:05 | 62.42529 | -15.91969 | 36089 ft | 417 kts | 294° |
| 2026-04-25 09:05 | 62.44913 | -16.03405 | 36088 ft | 417 kts | 294° |
| 2026-04-25 09:06 | 62.47274 | -16.14792 | 36088 ft | 417 kts | 294° |
| 2026-04-25 09:06 | 62.49624 | -16.26181 | 36088 ft | 417 kts | 293° |
| 2026-04-25 09:07 | 62.51981 | -16.37670 | 36088 ft | 417 kts | 294° |
| 2026-04-25 09:07 | 62.54305 | -16.49061 | 36087 ft | 417 kts | 294° |
| 2026-04-25 09:08 | 62.56628 | -16.60512 | 36088 ft | 417 kts | 294° |
| 2026-04-25 09:08 | 62.58958 | -16.72071 | 36089 ft | 417 kts | 293° |
| 2026-04-25 09:09 | 62.61256 | -16.83518 | 36088 ft | 417 kts | 293° |
| 2026-04-25 09:09 | 62.63567 | -16.95095 | 36088 ft | 417 kts | 293° |
| 2026-04-25 09:10 | 62.65842 | -17.06561 | 36087 ft | 417 kts | 292° |
| 2026-04-25 09:10 | 62.68124 | -17.18134 | 36089 ft | 417 kts | 292° |
| 2026-04-25 09:11 | 62.71520 | -17.35479 | 36088 ft | 417 kts | 292° |
| 2026-04-25 09:11 | 62.73776 | -17.47088 | 36088 ft | 417 kts | 293° |
| 2026-04-25 09:12 | 62.76022 | -17.58714 | 36086 ft | 417 kts | 292° |
| 2026-04-25 09:12 | 62.78257 | -17.70347 | 36088 ft | 417 kts | 292° |
| 2026-04-25 09:13 | 62.80489 | -17.82034 | 36088 ft | 417 kts | 292° |
| 2026-04-25 09:13 | 62.82711 | -17.93736 | 36090 ft | 417 kts | 292° |
| 2026-04-25 09:14 | 62.84911 | -18.05387 | 36090 ft | 417 kts | 292° |
| 2026-04-25 09:14 | 62.87117 | -18.17138 | 36088 ft | 416 kts | 292° |
| 2026-04-25 09:15 | 62.89301 | -18.28840 | 36087 ft | 417 kts | 292° |
| 2026-04-25 09:15 | 62.91467 | -18.40522 | 36086 ft | 417 kts | 292° |
| 2026-04-25 09:16 | 62.93638 | -18.52311 | 36087 ft | 417 kts | 292° |
| 2026-04-25 09:16 | 62.95812 | -18.64105 | 36087 ft | 417 kts | 293° |
| 2026-04-25 09:17 | 62.99765 | -18.81024 | 36088 ft | 418 kts | 300° |
| 2026-04-25 09:18 | 63.03026 | -18.91653 | 36088 ft | 419 kts | 304° |
| 2026-04-25 09:18 | 63.06414 | -19.02002 | 36088 ft | 419 kts | 304° |
| 2026-04-25 09:19 | 63.09797 | -19.12401 | 36089 ft | 419 kts | 304° |
| 2026-04-25 09:19 | 63.13149 | -19.22870 | 36089 ft | 419 kts | 303° |
| 2026-04-25 09:20 | 63.16508 | -19.33400 | 36089 ft | 419 kts | 303° |
| 2026-04-25 09:20 | 63.19842 | -19.43895 | 35587 ft | 419 kts | 303° |
| 2026-04-25 09:20 | 63.21507 | -19.49147 | 34996 ft | 417 kts | 304° |
| 2026-04-25 09:21 | 63.23167 | -19.54398 | 34335 ft | 417 kts | 304° |
| 2026-04-25 09:21 | 63.24818 | -19.59634 | 33635 ft | 417 kts | 304° |
| 2026-04-25 09:21 | 63.26476 | -19.64901 | 32909 ft | 418 kts | 304° |
| 2026-04-25 09:21 | 63.28141 | -19.70210 | 32170 ft | 419 kts | 303° |
| 2026-04-25 09:22 | 63.29802 | -19.75515 | 31419 ft | 421 kts | 303° |
| 2026-04-25 09:22 | 63.31449 | -19.80780 | 30661 ft | 422 kts | 303° |
| 2026-04-25 09:22 | 63.33115 | -19.86120 | 29874 ft | 423 kts | 303° |
| 2026-04-25 09:22 | 63.34788 | -19.91501 | 29069 ft | 425 kts | 303° |
| 2026-04-25 09:23 | 63.36465 | -19.96907 | 28250 ft | 426 kts | 303° |
| 2026-04-25 09:23 | 63.38137 | -20.02310 | 27416 ft | 428 kts | 303° |
| 2026-04-25 09:23 | 63.39821 | -20.07764 | 26573 ft | 430 kts | 303° |
| 2026-04-25 09:23 | 63.41516 | -20.13267 | 25710 ft | 431 kts | 303° |
| 2026-04-25 09:24 | 63.43189 | -20.18709 | 24834 ft | 433 kts | 303° |
| 2026-04-25 09:24 | 63.44895 | -20.24271 | 23908 ft | 435 kts | 304° |
| 2026-04-25 09:24 | 63.46595 | -20.29830 | 23065 ft | 434 kts | 304° |
| 2026-04-25 09:24 | 63.48285 | -20.35365 | 22495 ft | 431 kts | 304° |
| 2026-04-25 09:25 | 63.49964 | -20.40881 | 21916 ft | 427 kts | 304° |
| 2026-04-25 09:25 | 63.51601 | -20.46275 | 21335 ft | 422 kts | 304° |
| 2026-04-25 09:25 | 63.53233 | -20.51669 | 20761 ft | 418 kts | 304° |
| 2026-04-25 09:25 | 63.54852 | -20.57030 | 20191 ft | 414 kts | 304° |
| 2026-04-25 09:26 | 63.56449 | -20.62323 | 19642 ft | 409 kts | 304° |
| 2026-04-25 09:26 | 63.58032 | -20.67585 | 19101 ft | 405 kts | 303° |
| 2026-04-25 09:26 | 63.59025 | -20.70891 | 18760 ft | 403 kts | 303° |
| 2026-04-25 09:26 | 63.60766 | -20.76719 | 18114 ft | 402 kts | 303° |
| 2026-04-25 09:27 | 63.62539 | -20.82645 | 17393 ft | 402 kts | 303° |
| 2026-04-25 09:27 | 63.64338 | -20.88670 | 16717 ft | 400 kts | 303° |
| 2026-04-25 09:27 | 63.66067 | -20.94492 | 16085 ft | 397 kts | 304° |
| 2026-04-25 09:27 | 63.67761 | -21.00221 | 15473 ft | 393 kts | 304° |
| 2026-04-25 09:28 | 63.69468 | -21.06006 | 14837 ft | 390 kts | 305° |
| 2026-04-25 09:28 | 63.71138 | -21.11675 | 14130 ft | 389 kts | 306° |
| 2026-04-25 09:28 | 63.72831 | -21.17419 | 13430 ft | 388 kts | 306° |
| 2026-04-25 09:28 | 63.74517 | -21.23147 | 12749 ft | 385 kts | 306° |
| 2026-04-25 09:29 | 63.76184 | -21.28831 | 12195 ft | 379 kts | 306° |
| 2026-04-25 09:29 | 63.77808 | -21.34392 | 11793 ft | 367 kts | 306° |
| 2026-04-25 09:29 | 63.79402 | -21.39870 | 11534 ft | 353 kts | 306° |
| 2026-04-25 09:29 | 63.80909 | -21.45057 | 11273 ft | 341 kts | 306° |
| 2026-04-25 09:30 | 63.82377 | -21.50129 | 11031 ft | 328 kts | 306° |
| 2026-04-25 09:30 | 63.83793 | -21.55026 | 10816 ft | 316 kts | 306° |
| 2026-04-25 09:30 | 63.85125 | -21.59635 | 10631 ft | 304 kts | 307° |
| 2026-04-25 09:30 | 63.86492 | -21.63912 | 10467 ft | 291 kts | 311° |
| 2026-04-25 09:31 | 63.87855 | -21.67831 | 10328 ft | 279 kts | 311° |
| 2026-04-25 09:31 | 63.88779 | -21.70456 | 10234 ft | 272 kts | 311° |
| 2026-04-25 09:31 | 63.90522 | -21.75416 | 9728 ft | 273 kts | 311° |
| 2026-04-25 09:31 | 63.91507 | -21.78232 | 9448 ft | 273 kts | 311° |
| 2026-04-25 09:32 | 63.92680 | -21.81610 | 9119 ft | 273 kts | 311° |
| 2026-04-25 09:32 | 63.93849 | -21.85018 | 8793 ft | 272 kts | 311° |
| 2026-04-25 09:32 | 63.95019 | -21.88441 | 8467 ft | 272 kts | 311° |
| 2026-04-25 09:32 | 63.96172 | -21.91819 | 8143 ft | 271 kts | 311° |
| 2026-04-25 09:33 | 63.97313 | -21.95166 | 7821 ft | 271 kts | 310° |
| 2026-04-25 09:33 | 63.98481 | -21.98599 | 7485 ft | 271 kts | 310° |
| 2026-04-25 09:33 | 63.99699 | -22.02181 | 7127 ft | 271 kts | 310° |
| 2026-04-25 09:33 | 64.00875 | -22.05648 | 6999 ft | 259 kts | 310° |
| 2026-04-25 09:34 | 64.01945 | -22.08811 | 6936 ft | 249 kts | 311° |
| 2026-04-25 09:34 | 64.03011 | -22.11941 | 6519 ft | 254 kts | 311° |
| 2026-04-25 09:34 | 64.04108 | -22.15156 | 6125 ft | 256 kts | 310° |
| 2026-04-25 09:34 | 64.05188 | -22.18334 | 5842 ft | 254 kts | 310° |
| 2026-04-25 09:35 | 64.06274 | -22.21541 | 5516 ft | 254 kts | 310° |
| 2026-04-25 09:35 | 64.07357 | -22.24737 | 5181 ft | 253 kts | 310° |
| 2026-04-25 09:35 | 64.08429 | -22.27909 | 4803 ft | 253 kts | 310° |
| 2026-04-25 09:35 | 64.09576 | -22.30907 | 4387 ft | 252 kts | 319° |
| 2026-04-25 09:36 | 64.10888 | -22.33437 | 4078 ft | 244 kts | 325° |
| 2026-04-25 09:36 | 64.12222 | -22.35724 | 3788 ft | 234 kts | 327° |
| 2026-04-25 09:36 | 64.13513 | -22.37896 | 3514 ft | 225 kts | 326° |
| 2026-04-25 09:36 | 64.14748 | -22.39987 | 3256 ft | 218 kts | 324° |
| 2026-04-25 09:37 | 64.15734 | -22.42551 | 2949 ft | 219 kts | 291° |
| 2026-04-25 09:37 | 64.15893 | -22.45960 | 2807 ft | 214 kts | 253° |
| 2026-04-25 09:37 | 64.15428 | -22.49185 | 2817 ft | 212 kts | 245° |
| 2026-04-25 09:37 | 64.14880 | -22.52283 | 2804 ft | 208 kts | 244° |
| 2026-04-25 09:38 | 64.14364 | -22.55262 | 2629 ft | 195 kts | 245° |
| 2026-04-25 09:38 | 64.13882 | -22.58114 | 2480 ft | 188 kts | 241° |
| 2026-04-25 09:38 | 64.13056 | -22.60186 | 2330 ft | 175 kts | 200° |
| 2026-04-25 09:38 | 64.11886 | -22.60742 | 2223 ft | 168 kts | 178° |
| 2026-04-25 09:39 | 64.10729 | -22.60686 | 2102 ft | 167 kts | 173° |
| 2026-04-25 09:39 | 64.09579 | -22.60581 | 1978 ft | 166 kts | 174° |
| 2026-04-25 09:39 | 64.08443 | -22.60542 | 1877 ft | 158 kts | 176° |
| 2026-04-25 09:40 | 64.06480 | -22.60557 | 1554 ft | 127 kts | 175° |
| 2026-04-25 09:40 | 64.05595 | -22.60556 | 1395 ft | 128 kts | 175° |
| 2026-04-25 09:40 | 64.04697 | -22.60556 | 1232 ft | 128 kts | 175° |
| 2026-04-25 09:40 | 64.03808 | -22.60556 | 1067 ft | 127 kts | 175° |
| 2026-04-25 09:41 | 64.02924 | -22.60555 | 898 ft | 126 kts | 176° |
| 2026-04-25 09:41 | 64.02050 | -22.60556 | 729 ft | 125 kts | 176° |
| 2026-04-25 09:41 | 64.01179 | -22.60543 | 556 ft | 125 kts | 175° |
| 2026-04-25 09:41 | 64.00310 | -22.60544 | 418 ft | 123 kts | 175° |
| 2026-04-25 09:42 | 63.99434 | -22.60557 | 372 ft | 130 kts | 175° |
| 2026-04-25 09:42 | 63.98502 | -22.60528 | 1052 ft | 129 kts | 173° |
| 2026-04-25 09:42 | 63.97564 | -22.60513 | 1565 ft | 145 kts | 173° |
| 2026-04-25 09:42 | 63.96498 | -22.60508 | 2114 ft | 161 kts | 171° |
| 2026-04-25 09:43 | 63.95618 | -22.59835 | 2555 ft | 168 kts | 141° |
| 2026-04-25 09:43 | 63.95057 | -22.58169 | 2893 ft | 184 kts | 111° |
| 2026-04-25 09:43 | 63.94873 | -22.55005 | 3005 ft | 219 kts | 92° |
| 2026-04-25 09:43 | 63.94975 | -22.51518 | 3000 ft | 224 kts | 86° |
| 2026-04-25 09:44 | 63.95511 | -22.48166 | 2987 ft | 232 kts | 58° |
| 2026-04-25 09:44 | 63.96614 | -22.45401 | 3001 ft | 239 kts | 49° |
| 2026-04-25 09:44 | 63.97886 | -22.42759 | 2999 ft | 238 kts | 46° |
| 2026-04-25 09:44 | 63.99298 | -22.40286 | 2983 ft | 246 kts | 30° |
| 2026-04-25 09:45 | 64.01159 | -22.39483 | 2999 ft | 255 kts | 3° |
| 2026-04-25 09:45 | 64.03188 | -22.39890 | 3003 ft | 259 kts | 358° |
| 2026-04-25 09:45 | 64.05139 | -22.40485 | 2992 ft | 254 kts | 357° |
| 2026-04-25 09:45 | 64.07060 | -22.41109 | 2993 ft | 237 kts | 357° |
| 2026-04-25 09:46 | 64.08876 | -22.41724 | 2984 ft | 221 kts | 357° |
| 2026-04-25 09:46 | 64.10626 | -22.42380 | 2900 ft | 222 kts | 351° |
| 2026-04-25 09:46 | 64.12014 | -22.44109 | 2701 ft | 224 kts | 319° |
| 2026-04-25 09:46 | 64.12821 | -22.47085 | 2516 ft | 217 kts | 281° |
| 2026-04-25 09:47 | 64.12994 | -22.50372 | 2409 ft | 205 kts | 269° |
| 2026-04-25 09:47 | 64.13036 | -22.53649 | 2280 ft | 201 kts | 265° |
| 2026-04-25 09:47 | 64.12639 | -22.57014 | 2100 ft | 186 kts | 224° |
| 2026-04-25 09:47 | 64.11552 | -22.59054 | 1992 ft | 178 kts | 205° |
| 2026-04-25 09:48 | 64.10380 | -22.60175 | 1857 ft | 167 kts | 185° |
| 2026-04-25 09:48 | 64.09142 | -22.60493 | 1828 ft | 164 kts | 176° |
| 2026-04-25 09:48 | 64.08001 | -22.60575 | 1807 ft | 139 kts | 173° |
| 2026-04-25 09:48 | 64.07013 | -22.60569 | 1689 ft | 130 kts | 171° |
| 2026-04-25 09:49 | 64.06084 | -22.60562 | 1495 ft | 123 kts | 173° |
| 2026-04-25 09:49 | 64.05196 | -22.60559 | 1328 ft | 120 kts | 174° |
| 2026-04-25 09:49 | 64.04313 | -22.60555 | 1147 ft | 119 kts | 174° |
| 2026-04-25 09:49 | 64.03436 | -22.60534 | 976 ft | 119 kts | 174° |
| 2026-04-25 09:50 | 64.02576 | -22.60527 | 806 ft | 119 kts | 173° |
| 2026-04-25 09:50 | 64.01691 | -22.60543 | 643 ft | 119 kts | 174° |
| 2026-04-25 09:50 | 64.00788 | -22.60541 | 459 ft | 118 kts | 175° |
| 2026-04-25 09:50 | 63.99907 | -22.60548 | 316 ft | 117 kts | 174° |
| 2026-04-25 09:51 | 63.99067 | -22.60554 | 164 ft | 112 kts | 173° |
| 2026-04-25 09:51 | 63.98396 | -22.60545 | 155 ft | 67 kts | 181° |
| 2026-04-25 09:51 | 63.97982 | -22.60544 | 158 ft | 52 kts | 180° |
| 2026-04-25 09:51 | 63.97630 | -22.60546 | 154 ft | 46 kts | 179° |
| 2026-04-25 09:52 | 63.97444 | -22.60672 | 147 ft | 22 kts | 258° |
| 2026-04-25 09:52 | 63.97452 | -22.60868 | 145 ft | 0 kts | 285° |
| 2026-04-25 09:52 | 63.97456 | -22.60895 | 144 ft | 5 kts | 297° |
| 2026-04-25 09:52 | 63.97517 | -22.60949 | 144 ft | 12 kts | 358° |
| 2026-04-25 09:53 | 63.97624 | -22.60950 | 146 ft | 16 kts | 1° |
| 2026-04-25 09:53 | 63.97763 | -22.60952 | 147 ft | 21 kts | 1° |
| 2026-04-25 09:53 | 63.97930 | -22.60950 | 149 ft | 24 kts | 0° |
| 2026-04-25 09:53 | 63.98105 | -22.60951 | 151 ft | 23 kts | 0° |
| 2026-04-25 09:54 | 63.98277 | -22.60951 | 151 ft | 22 kts | 0° |
| 2026-04-25 09:54 | 63.98449 | -22.60951 | 147 ft | 23 kts | 1° |
| 2026-04-25 09:54 | 63.98621 | -22.60949 | 147 ft | 23 kts | 360° |
| 2026-04-25 09:54 | 63.98793 | -22.60950 | 147 ft | 22 kts | 1° |
| 2026-04-25 09:55 | 63.98972 | -22.60949 | 144 ft | 23 kts | 1° |
| 2026-04-25 09:55 | 63.99123 | -22.60948 | 143 ft | 9 kts | 0° |
| 2026-04-25 09:55 | 63.99173 | -22.61093 | 143 ft | 14 kts | 271° |
| 2026-04-25 09:55 | 63.99172 | -22.61334 | 140 ft | 13 kts | 269° |
| 2026-04-25 09:56 | 63.99172 | -22.61578 | 140 ft | 14 kts | 271° |
| 2026-04-25 09:56 | 63.99173 | -22.61846 | 140 ft | 15 kts | 270° |
| 2026-04-25 09:56 | 63.99172 | -22.62134 | 140 ft | 16 kts | 270° |
| 2026-04-25 09:56 | 63.99171 | -22.62400 | 139 ft | 9 kts | 272° |
| 2026-04-25 09:57 | 63.99225 | -22.62461 | 138 ft | 8 kts | 359° |
| 2026-04-25 09:57 | 63.99279 | -22.62461 | 139 ft | 2 kts | 1° |